TimePST,TemperatureF,Dew PointF,Humidity,Sea Level PressureIn,VisibilityMPH,Wind Direction,Wind SpeedMPH,Gust SpeedMPH,PrecipitationIn,Events,Conditions,WindDirDegrees,DateUTC
12:22 AM,19.4,15.8,86,30.36,10.0,NE,3.5,-,N/A,,Overcast,50,2013-01-04 08:22:00
12:53 AM,21.0,17.1,85,30.42,10.0,ENE,4.6,-,N/A,,Overcast,60,2013-01-04 08:53:00
1:13 AM,19.4,15.8,86,30.36,10.0,East,4.6,-,N/A,,Overcast,80,2013-01-04 09:13:00
1:39 AM,21.2,15.8,80,30.37,10.0,Calm,Calm,-,N/A,,Overcast,0,2013-01-04 09:39:00
1:53 AM,21.0,17.1,85,30.43,10.0,ENE,3.5,-,N/A,,Overcast,60,2013-01-04 09:53:00
2:53 AM,21.0,17.1,85,30.43,10.0,NNE,3.5,-,N/A,,Overcast,30,2013-01-04 10:53:00
3:53 AM,21.0,17.1,85,30.43,10.0,North,5.8,-,N/A,,Overcast,10,2013-01-04 11:53:00
5:53 AM,21.9,17.1,82,30.44,10.0,NNE,5.8,-,N/A,,Overcast,20,2013-01-04 13:53:00
6:53 AM,21.9,18.0,85,30.44,10.0,NNE,6.9,-,N/A,,Overcast,20,2013-01-04 14:53:00
7:53 AM,23.0,18.0,81,30.45,10.0,North,3.5,-,N/A,,Overcast,350,2013-01-04 15:53:00
8:53 AM,23.0,18.0,81,30.46,10.0,North,4.6,-,N/A,,Overcast,10,2013-01-04 16:53:00
9:50 AM,24.8,17.6,74,30.42,10.0,North,4.6,-,N/A,,Overcast,10,2013-01-04 17:50:00
9:53 AM,24.1,18.0,77,30.48,10.0,North,5.8,-,N/A,,Overcast,360,2013-01-04 17:53:00
10:53 AM,25.0,19.0,78,30.48,10.0,Calm,Calm,-,N/A,,Overcast,0,2013-01-04 18:53:00
11:53 AM,25.0,19.0,78,30.46,10.0,NNE,3.5,-,N/A,,Overcast,20,2013-01-04 19:53:00
12:53 PM,26.1,19.9,78,30.45,9.0,North,3.5,-,N/A,,Overcast,360,2013-01-04 20:53:00
1:53 PM,26.1,19.9,78,30.45,10.0,North,3.5,-,N/A,,Overcast,10,2013-01-04 21:53:00
2:53 PM,27.0,19.9,75,30.46,10.0,NNE,3.5,-,N/A,,Overcast,20,2013-01-04 22:53:00
3:35 PM,26.6,19.4,74,30.39,9.0,NNE,4.6,-,N/A,,Overcast,30,2013-01-04 23:35:00
3:53 PM,26.1,19.9,78,30.44,9.0,NE,4.6,-,N/A,,Overcast,40,2013-01-04 23:53:00
4:53 PM,26.1,21.0,81,30.45,9.0,Calm,Calm,-,N/A,,Overcast,0,2013-01-05 00:53:00
5:53 PM,26.1,21.0,81,30.45,10.0,North,5.8,-,N/A,,Overcast,10,2013-01-05 01:53:00
6:53 PM,26.1,21.0,81,30.45,10.0,NNW,4.6,-,N/A,,Overcast,340,2013-01-05 02:53:00
7:53 PM,26.1,21.0,81,30.44,10.0,North,8.1,-,N/A,,Overcast,350,2013-01-05 03:53:00
8:53 PM,26.1,21.0,81,30.45,10.0,North,10.4,-,N/A,,Overcast,350,2013-01-05 04:53:00
9:53 PM,27.0,21.9,81,30.45,10.0,NNW,10.4,-,N/A,,Overcast,340,2013-01-05 05:53:00
10:53 PM,27.0,21.9,81,30.45,10.0,North,10.4,-,N/A,,Overcast,350,2013-01-05 06:53:00
11:29 PM,26.6,21.2,80,30.38,10.0,North,12.7,-,N/A,,Overcast,350,2013-01-05 07:29:00
11:53 PM,27.0,21.9,81,30.43,10.0,North,13.8,-,N/A,,Overcast,350,2013-01-05 07:53:00